sensor_id;sensor_type;location;lat;lon;timestamp;P1;durP1;ratioP1;P2;durP2;ratioP2
67429;SDS011;54298;52.076;5.264;2023-08-08T00:02:28;8.81;;;2.6;;
67429;SDS011;54298;52.076;5.264;2023-08-08T00:04:04;8.0;;;2.8;;
67429;SDS011;54298;52.076;5.264;2023-08-08T00:05:41;8.0;;;2.8;;
67429;SDS011;54298;52.076;5.264;2023-08-08T00:08:53;11.6;;;3.2;;
67429;SDS011;54298;52.076;5.264;2023-08-08T00:10:29;10.7;;;2.31;;
67429;SDS011;54298;52.076;5.264;2023-08-08T00:12:05;7.0;;;2.4;;
67429;SDS011;54298;52.076;5.264;2023-08-08T00:13:42;7.9;;;2.5;;
67429;SDS011;54298;52.076;5.264;2023-08-08T00:16:54;8.2;;;2.31;;
67429;SDS011;54298;52.076;5.264;2023-08-08T00:18:30;8.81;;;2.6;;
67429;SDS011;54298;52.076;5.264;2023-08-08T00:20:07;5.3;;;2.5;;
67429;SDS011;54298;52.076;5.264;2023-08-08T00:23:20;6.5;;;2.4;;
67429;SDS011;54298;52.076;5.264;2023-08-08T00:24:56;7.0;;;2.5;;
67429;SDS011;54298;52.076;5.264;2023-08-08T00:26:32;7.3;;;3.0;;
67429;SDS011;54298;52.076;5.264;2023-08-08T00:29:44;11.0;;;3.2;;
67429;SDS011;54298;52.076;5.264;2023-08-08T00:31:20;13.5;;;2.8;;
67429;SDS011;54298;52.076;5.264;2023-08-08T00:32:56;8.2;;;2.6;;
67429;SDS011;54298;52.076;5.264;2023-08-08T00:36:09;13.0;;;3.4;;
67429;SDS011;54298;52.076;5.264;2023-08-08T00:37:45;8.1;;;2.4;;
67429;SDS011;54298;52.076;5.264;2023-08-08T00:39:21;6.8;;;2.6;;
67429;SDS011;54298;52.076;5.264;2023-08-08T00:40:57;8.71;;;2.8;;
67429;SDS011;54298;52.076;5.264;2023-08-08T00:44:09;11.6;;;3.2;;
67429;SDS011;54298;52.076;5.264;2023-08-08T00:45:45;12.3;;;3.0;;
67429;SDS011;54298;52.076;5.264;2023-08-08T00:47:21;8.5;;;2.8;;
67429;SDS011;54298;52.076;5.264;2023-08-08T00:50:34;6.1;;;2.8;;
67429;SDS011;54298;52.076;5.264;2023-08-08T00:52:12;9.21;;;2.7;;
67429;SDS011;54298;52.076;5.264;2023-08-08T00:53:49;8.1;;;3.2;;
67429;SDS011;54298;52.076;5.264;2023-08-08T00:57:02;7.3;;;2.5;;
67429;SDS011;54298;52.076;5.264;2023-08-08T00:58:39;10.3;;;2.9;;
67429;SDS011;54298;52.076;5.264;2023-08-08T01:00:15;5.8;;;2.6;;
67429;SDS011;54298;52.076;5.264;2023-08-08T01:01:51;9.6;;;2.9;;
67429;SDS011;54298;52.076;5.264;2023-08-08T01:05:04;12.1;;;2.9;;
67429;SDS011;54298;52.076;5.264;2023-08-08T01:06:42;9.4;;;3.5;;
67429;SDS011;54298;52.076;5.264;2023-08-08T01:08:31;14.7;;;3.1;;
67429;SDS011;54298;52.076;5.264;2023-08-08T01:10:15;8.4;;;3.0;;
67429;SDS011;54298;52.076;5.264;2023-08-08T01:13:33;6.9;;;2.6;;
67429;SDS011;54298;52.076;5.264;2023-08-08T01:15:12;11.2;;;3.0;;
67429;SDS011;54298;52.076;5.264;2023-08-08T01:16:50;8.9;;;2.9;;
67429;SDS011;54298;52.076;5.264;2023-08-08T01:20:06;10.3;;;3.1;;
67429;SDS011;54298;52.076;5.264;2023-08-08T01:21:44;10.0;;;2.5;;
67429;SDS011;54298;52.076;5.264;2023-08-08T01:23:25;7.3;;;2.8;;
67429;SDS011;54298;52.076;5.264;2023-08-08T01:25:08;10.6;;;2.9;;
67429;SDS011;54298;52.076;5.264;2023-08-08T01:28:23;6.3;;;2.7;;
67429;SDS011;54298;52.076;5.264;2023-08-08T01:30:00;6.1;;;2.8;;
67429;SDS011;54298;52.076;5.264;2023-08-08T01:31:36;6.5;;;2.7;;
67429;SDS011;54298;52.076;5.264;2023-08-08T01:33:12;9.6;;;3.1;;
67429;SDS011;54298;52.076;5.264;2023-08-08T01:36:27;11.8;;;3.0;;
67429;SDS011;54298;52.076;5.264;2023-08-08T01:38:09;8.5;;;2.7;;
67429;SDS011;54298;52.076;5.264;2023-08-08T01:39:51;8.31;;;2.5;;
67429;SDS011;54298;52.076;5.264;2023-08-08T01:43:07;8.71;;;3.0;;
67429;SDS011;54298;52.076;5.264;2023-08-08T01:44:44;6.7;;;2.8;;
67429;SDS011;54298;52.076;5.264;2023-08-08T01:46:21;7.4;;;2.6;;
67429;SDS011;54298;52.076;5.264;2023-08-08T01:47:58;8.4;;;2.9;;
67429;SDS011;54298;52.076;5.264;2023-08-08T01:51:11;9.6;;;2.9;;
67429;SDS011;54298;52.076;5.264;2023-08-08T01:52:47;10.5;;;2.9;;
67429;SDS011;54298;52.076;5.264;2023-08-08T01:54:23;13.5;;;2.9;;
67429;SDS011;54298;52.076;5.264;2023-08-08T01:57:35;9.0;;;2.9;;
67429;SDS011;54298;52.076;5.264;2023-08-08T01:59:11;13.5;;;3.3;;
67429;SDS011;54298;52.076;5.264;2023-08-08T02:00:47;11.8;;;3.2;;
67429;SDS011;54298;52.076;5.264;2023-08-08T02:04:00;10.1;;;3.4;;
67429;SDS011;54298;52.076;5.264;2023-08-08T02:05:36;12.0;;;3.3;;
67429;SDS011;54298;52.076;5.264;2023-08-08T02:07:12;9.0;;;3.1;;
67429;SDS011;54298;52.076;5.264;2023-08-08T02:08:48;10.8;;;3.5;;
67429;SDS011;54298;52.076;5.264;2023-08-08T02:12:00;10.1;;;3.5;;
67429;SDS011;54298;52.076;5.264;2023-08-08T02:13:36;11.5;;;2.8;;
67429;SDS011;54298;52.076;5.264;2023-08-08T02:15:12;9.21;;;2.6;;
67429;SDS011;54298;52.076;5.264;2023-08-08T02:18:26;11.1;;;3.2;;
67429;SDS011;54298;52.076;5.264;2023-08-08T02:20:02;8.2;;;3.2;;
67429;SDS011;54298;52.076;5.264;2023-08-08T02:21:39;9.5;;;3.2;;
67429;SDS011;54298;52.076;5.264;2023-08-08T02:24:51;9.21;;;3.0;;
67429;SDS011;54298;52.076;5.264;2023-08-08T02:26:27;7.8;;;3.2;;
67429;SDS011;54298;52.076;5.264;2023-08-08T02:28:03;7.2;;;3.1;;
67429;SDS011;54298;52.076;5.264;2023-08-08T02:29:40;8.1;;;3.1;;
67429;SDS011;54298;52.076;5.264;2023-08-08T02:32:52;9.0;;;3.1;;
67429;SDS011;54298;52.076;5.264;2023-08-08T02:34:29;10.6;;;3.4;;
67429;SDS011;54298;52.076;5.264;2023-08-08T02:36:05;7.4;;;3.1;;
67429;SDS011;54298;52.076;5.264;2023-08-08T02:39:17;13.2;;;2.9;;
67429;SDS011;54298;52.076;5.264;2023-08-08T02:40:53;10.1;;;4.0;;
67429;SDS011;54298;52.076;5.264;2023-08-08T02:42:29;20.11;;;4.0;;
67429;SDS011;54298;52.076;5.264;2023-08-08T02:45:42;8.71;;;3.2;;
67429;SDS011;54298;52.076;5.264;2023-08-08T02:47:18;7.5;;;3.2;;
67429;SDS011;54298;52.076;5.264;2023-08-08T02:48:54;8.6;;;3.2;;
67429;SDS011;54298;52.076;5.264;2023-08-08T02:52:07;8.5;;;3.1;;
67429;SDS011;54298;52.076;5.264;2023-08-08T02:53:43;6.4;;;3.1;;
67429;SDS011;54298;52.076;5.264;2023-08-08T02:55:19;10.7;;;3.5;;
67429;SDS011;54298;52.076;5.264;2023-08-08T02:56:55;8.9;;;3.3;;
67429;SDS011;54298;52.076;5.264;2023-08-08T03:00:07;9.21;;;3.0;;
67429;SDS011;54298;52.076;5.264;2023-08-08T03:01:43;9.31;;;3.9;;
67429;SDS011;54298;52.076;5.264;2023-08-08T03:03:19;11.9;;;3.5;;
67429;SDS011;54298;52.076;5.264;2023-08-08T03:06:32;12.5;;;3.2;;
67429;SDS011;54298;52.076;5.264;2023-08-08T03:08:08;9.31;;;3.7;;
67429;SDS011;54298;52.076;5.264;2023-08-08T03:09:44;7.1;;;3.1;;
67429;SDS011;54298;52.076;5.264;2023-08-08T03:12:56;7.2;;;3.0;;
67429;SDS011;54298;52.076;5.264;2023-08-08T03:14:32;11.8;;;3.5;;
67429;SDS011;54298;52.076;5.264;2023-08-08T03:16:08;10.1;;;3.2;;
67429;SDS011;54298;52.076;5.264;2023-08-08T03:19:21;8.81;;;3.3;;
67429;SDS011;54298;52.076;5.264;2023-08-08T03:20:57;9.1;;;3.5;;
67429;SDS011;54298;52.076;5.264;2023-08-08T03:22:33;11.0;;;3.8;;
67429;SDS011;54298;52.076;5.264;2023-08-08T03:24:09;7.9;;;3.2;;
67429;SDS011;54298;52.076;5.264;2023-08-08T03:27:21;8.0;;;3.4;;
67429;SDS011;54298;52.076;5.264;2023-08-08T03:28:58;12.5;;;3.5;;
67429;SDS011;54298;52.076;5.264;2023-08-08T03:30:35;9.4;;;3.2;;
67429;SDS011;54298;52.076;5.264;2023-08-08T03:33:48;8.1;;;3.6;;
67429;SDS011;54298;52.076;5.264;2023-08-08T03:35:24;14.4;;;3.6;;
67429;SDS011;54298;52.076;5.264;2023-08-08T03:37:01;8.31;;;3.4;;
67429;SDS011;54298;52.076;5.264;2023-08-08T03:40:13;12.5;;;3.8;;
67429;SDS011;54298;52.076;5.264;2023-08-08T03:41:49;10.4;;;3.5;;
67429;SDS011;54298;52.076;5.264;2023-08-08T03:43:25;7.6;;;3.5;;
67429;SDS011;54298;52.076;5.264;2023-08-08T03:45:01;10.9;;;3.0;;
67429;SDS011;54298;52.076;5.264;2023-08-08T03:48:13;7.2;;;3.2;;
67429;SDS011;54298;52.076;5.264;2023-08-08T03:49:49;7.7;;;2.9;;
67429;SDS011;54298;52.076;5.264;2023-08-08T03:51:26;7.5;;;3.0;;
67429;SDS011;54298;52.076;5.264;2023-08-08T03:54:38;6.3;;;2.9;;
67429;SDS011;54298;52.076;5.264;2023-08-08T03:56:14;8.1;;;3.4;;
67429;SDS011;54298;52.076;5.264;2023-08-08T03:57:50;5.9;;;2.7;;
67429;SDS011;54298;52.076;5.264;2023-08-08T04:01:02;6.7;;;2.9;;
67429;SDS011;54298;52.076;5.264;2023-08-08T04:02:38;6.6;;;2.8;;
67429;SDS011;54298;52.076;5.264;2023-08-08T04:04:14;8.6;;;2.8;;
67429;SDS011;54298;52.076;5.264;2023-08-08T04:07:27;9.71;;;2.7;;
67429;SDS011;54298;52.076;5.264;2023-08-08T04:09:03;6.7;;;3.9;;
67429;SDS011;54298;52.076;5.264;2023-08-08T04:10:39;9.1;;;3.2;;
67429;SDS011;54298;52.076;5.264;2023-08-08T04:12:15;8.0;;;2.8;;
67429;SDS011;54298;52.076;5.264;2023-08-08T04:15:27;11.3;;;2.8;;
67429;SDS011;54298;52.076;5.264;2023-08-08T04:17:03;6.0;;;2.8;;
67429;SDS011;54298;52.076;5.264;2023-08-08T04:18:40;8.1;;;2.7;;
67429;SDS011;54298;52.076;5.264;2023-08-08T04:21:52;8.2;;;2.8;;
67429;SDS011;54298;52.076;5.264;2023-08-08T04:23:28;8.4;;;2.9;;
67429;SDS011;54298;52.076;5.264;2023-08-08T04:25:05;6.1;;;2.9;;
67429;SDS011;54298;52.076;5.264;2023-08-08T04:28:17;7.5;;;2.9;;
67429;SDS011;54298;52.076;5.264;2023-08-08T04:29:53;8.9;;;2.6;;
67429;SDS011;54298;52.076;5.264;2023-08-08T04:31:29;6.6;;;2.9;;
67429;SDS011;54298;52.076;5.264;2023-08-08T04:33:06;5.6;;;2.6;;
67429;SDS011;54298;52.076;5.264;2023-08-08T04:36:18;7.6;;;2.9;;
67429;SDS011;54298;52.076;5.264;2023-08-08T04:37:54;5.8;;;2.5;;
67429;SDS011;54298;52.076;5.264;2023-08-08T04:39:30;7.0;;;2.21;;
67429;SDS011;54298;52.076;5.264;2023-08-08T04:42:42;5.2;;;2.6;;
67429;SDS011;54298;52.076;5.264;2023-08-08T04:44:18;6.7;;;2.7;;
67429;SDS011;54298;52.076;5.264;2023-08-08T04:45:54;11.4;;;3.3;;
67429;SDS011;54298;52.076;5.264;2023-08-08T04:49:07;7.6;;;2.8;;
67429;SDS011;54298;52.076;5.264;2023-08-08T04:50:43;8.71;;;2.9;;
67429;SDS011;54298;52.076;5.264;2023-08-08T04:52:21;7.5;;;3.0;;
67429;SDS011;54298;52.076;5.264;2023-08-08T04:55:33;5.8;;;3.0;;
67429;SDS011;54298;52.076;5.264;2023-08-08T04:57:09;11.1;;;3.2;;
67429;SDS011;54298;52.076;5.264;2023-08-08T04:58:45;6.7;;;2.8;;
67429;SDS011;54298;52.076;5.264;2023-08-08T05:00:21;7.2;;;3.0;;
67429;SDS011;54298;52.076;5.264;2023-08-08T05:03:34;8.31;;;3.2;;
67429;SDS011;54298;52.076;5.264;2023-08-08T05:05:10;7.0;;;2.8;;
67429;SDS011;54298;52.076;5.264;2023-08-08T05:06:46;8.81;;;2.8;;
67429;SDS011;54298;52.076;5.264;2023-08-08T05:09:58;10.7;;;3.2;;
67429;SDS011;54298;52.076;5.264;2023-08-08T05:11:35;6.0;;;2.9;;
67429;SDS011;54298;52.076;5.264;2023-08-08T05:13:12;7.0;;;2.7;;
67429;SDS011;54298;52.076;5.264;2023-08-08T05:16:25;6.4;;;2.7;;
67429;SDS011;54298;52.076;5.264;2023-08-08T05:18:01;6.4;;;2.7;;
67429;SDS011;54298;52.076;5.264;2023-08-08T05:19:37;6.7;;;2.9;;
67429;SDS011;54298;52.076;5.264;2023-08-08T05:21:13;4.8;;;2.31;;
67429;SDS011;54298;52.076;5.264;2023-08-08T05:24:25;8.2;;;2.5;;
67429;SDS011;54298;52.076;5.264;2023-08-08T05:26:02;5.7;;;2.31;;
67429;SDS011;54298;52.076;5.264;2023-08-08T05:27:38;7.7;;;2.6;;
67429;SDS011;54298;52.076;5.264;2023-08-08T05:30:52;9.4;;;2.7;;
67429;SDS011;54298;52.076;5.264;2023-08-08T05:32:28;5.5;;;2.4;;
67429;SDS011;54298;52.076;5.264;2023-08-08T05:34:04;4.7;;;2.1;;
67429;SDS011;54298;52.076;5.264;2023-08-08T05:37:16;5.8;;;3.0;;
67429;SDS011;54298;52.076;5.264;2023-08-08T05:38:52;7.4;;;3.2;;
67429;SDS011;54298;52.076;5.264;2023-08-08T05:40:28;6.8;;;3.2;;
67429;SDS011;54298;52.076;5.264;2023-08-08T05:43:41;3.6;;;1.8;;
67429;SDS011;54298;52.076;5.264;2023-08-08T05:45:17;5.11;;;1.9;;
67429;SDS011;54298;52.076;5.264;2023-08-08T05:46:54;3.4;;;1.8;;
67429;SDS011;54298;52.076;5.264;2023-08-08T05:48:30;5.8;;;1.7;;
67429;SDS011;54298;52.076;5.264;2023-08-08T05:51:43;4.61;;;1.9;;
67429;SDS011;54298;52.076;5.264;2023-08-08T05:53:19;4.41;;;1.4;;
67429;SDS011;54298;52.076;5.264;2023-08-08T05:54:55;4.5;;;1.4;;
67429;SDS011;54298;52.076;5.264;2023-08-08T05:58:10;4.2;;;1.3;;
67429;SDS011;54298;52.076;5.264;2023-08-08T05:59:46;4.8;;;2.21;;
67429;SDS011;54298;52.076;5.264;2023-08-08T06:01:22;9.71;;;4.91;;
67429;SDS011;54298;52.076;5.264;2023-08-08T06:04:35;5.9;;;2.31;;
67429;SDS011;54298;52.076;5.264;2023-08-08T06:06:11;11.3;;;5.7;;
67429;SDS011;54298;52.076;5.264;2023-08-08T06:07:47;11.3;;;5.4;;
67429;SDS011;54298;52.076;5.264;2023-08-08T06:09:24;6.9;;;2.6;;
67429;SDS011;54298;52.076;5.264;2023-08-08T06:12:36;5.9;;;3.3;;
67429;SDS011;54298;52.076;5.264;2023-08-08T06:14:12;3.2;;;1.9;;
67429;SDS011;54298;52.076;5.264;2023-08-08T06:15:48;2.8;;;1.5;;
67429;SDS011;54298;52.076;5.264;2023-08-08T06:19:01;6.9;;;2.31;;
67429;SDS011;54298;52.076;5.264;2023-08-08T06:20:37;7.0;;;1.9;;
67429;SDS011;54298;52.076;5.264;2023-08-08T06:22:13;4.5;;;2.21;;
67429;SDS011;54298;52.076;5.264;2023-08-08T06:25:25;9.5;;;2.7;;
67429;SDS011;54298;52.076;5.264;2023-08-08T06:27:01;6.1;;;1.6;;
67429;SDS011;54298;52.076;5.264;2023-08-08T06:28:37;3.0;;;1.6;;
67429;SDS011;54298;52.076;5.264;2023-08-08T06:31:50;2.6;;;1.4;;
67429;SDS011;54298;52.076;5.264;2023-08-08T06:33:26;2.9;;;1.6;;
67429;SDS011;54298;52.076;5.264;2023-08-08T06:35:02;3.8;;;1.7;;
67429;SDS011;54298;52.076;5.264;2023-08-08T06:36:39;5.4;;;2.6;;
67429;SDS011;54298;52.076;5.264;2023-08-08T06:39:51;3.6;;;2.21;;
67429;SDS011;54298;52.076;5.264;2023-08-08T06:41:27;3.9;;;1.5;;
67429;SDS011;54298;52.076;5.264;2023-08-08T06:43:03;6.9;;;1.11;;
67429;SDS011;54298;52.076;5.264;2023-08-08T06:46:18;4.1;;;1.3;;
67429;SDS011;54298;52.076;5.264;2023-08-08T06:47:54;4.3;;;1.7;;
67429;SDS011;54298;52.076;5.264;2023-08-08T06:49:30;4.1;;;2.0;;
67429;SDS011;54298;52.076;5.264;2023-08-08T06:52:42;2.6;;;1.3;;
67429;SDS011;54298;52.076;5.264;2023-08-08T06:54:18;3.6;;;1.8;;
67429;SDS011;54298;52.076;5.264;2023-08-08T06:55:54;5.7;;;1.11;;
67429;SDS011;54298;52.076;5.264;2023-08-08T06:57:32;1.8;;;1.0;;
67429;SDS011;54298;52.076;5.264;2023-08-08T07:00:46;3.2;;;1.5;;
67429;SDS011;54298;52.076;5.264;2023-08-08T07:02:22;3.6;;;1.4;;
67429;SDS011;54298;52.076;5.264;2023-08-08T07:03:58;5.3;;;2.31;;
67429;SDS011;54298;52.076;5.264;2023-08-08T07:07:10;4.7;;;2.6;;
67429;SDS011;54298;52.076;5.264;2023-08-08T07:08:46;6.7;;;1.8;;
67429;SDS011;54298;52.076;5.264;2023-08-08T07:10:22;4.5;;;2.1;;
67429;SDS011;54298;52.076;5.264;2023-08-08T07:13:34;3.8;;;1.4;;
67429;SDS011;54298;52.076;5.264;2023-08-08T07:15:11;2.8;;;1.8;;
67429;SDS011;54298;52.076;5.264;2023-08-08T07:16:48;2.0;;;1.0;;
67429;SDS011;54298;52.076;5.264;2023-08-08T07:18:24;2.31;;;1.11;;
67429;SDS011;54298;52.076;5.264;2023-08-08T07:21:36;2.21;;;1.11;;
67429;SDS011;54298;52.076;5.264;2023-08-08T07:23:12;2.1;;;0.8;;
67429;SDS011;54298;52.076;5.264;2023-08-08T07:28:00;1.9;;;1.11;;
67429;SDS011;54298;52.076;5.264;2023-08-08T07:29:36;3.3;;;1.3;;
67429;SDS011;54298;52.076;5.264;2023-08-08T07:31:13;5.11;;;1.6;;
67429;SDS011;54298;52.076;5.264;2023-08-08T07:34:25;2.8;;;1.11;;
67429;SDS011;54298;52.076;5.264;2023-08-08T07:36:01;2.7;;;1.3;;
67429;SDS011;54298;52.076;5.264;2023-08-08T07:37:37;11.1;;;3.6;;
67429;SDS011;54298;52.076;5.264;2023-08-08T07:40:49;3.7;;;1.7;;
67429;SDS011;54298;52.076;5.264;2023-08-08T07:42:25;10.6;;;5.3;;
67429;SDS011;54298;52.076;5.264;2023-08-08T07:44:02;5.2;;;2.31;;
67429;SDS011;54298;52.076;5.264;2023-08-08T07:45:37;5.4;;;1.11;;
67429;SDS011;54298;52.076;5.264;2023-08-08T07:48:49;2.4;;;1.11;;
67429;SDS011;54298;52.076;5.264;2023-08-08T07:50:25;1.3;;;0.6;;
67429;SDS011;54298;52.076;5.264;2023-08-08T07:52:01;1.8;;;0.9;;
67429;SDS011;54298;52.076;5.264;2023-08-08T07:55:13;3.2;;;0.8;;
67429;SDS011;54298;52.076;5.264;2023-08-08T07:56:49;1.5;;;0.6;;
67429;SDS011;54298;52.076;5.264;2023-08-08T07:58:25;2.1;;;0.7;;
67429;SDS011;54298;52.076;5.264;2023-08-08T08:01:42;3.7;;;0.8;;
67429;SDS011;54298;52.076;5.264;2023-08-08T08:03:18;1.9;;;0.8;;
67429;SDS011;54298;52.076;5.264;2023-08-08T08:04:55;2.4;;;0.6;;
67429;SDS011;54298;52.076;5.264;2023-08-08T08:06:31;1.4;;;0.7;;
67429;SDS011;54298;52.076;5.264;2023-08-08T08:09:43;8.0;;;0.6;;
67429;SDS011;54298;52.076;5.264;2023-08-08T08:11:19;1.11;;;0.6;;
67429;SDS011;54298;52.076;5.264;2023-08-08T08:12:56;1.7;;;0.7;;
67429;SDS011;54298;52.076;5.264;2023-08-08T08:16:08;1.9;;;0.7;;
67429;SDS011;54298;52.076;5.264;2023-08-08T08:17:44;2.7;;;0.7;;
67429;SDS011;54298;52.076;5.264;2023-08-08T08:19:20;3.5;;;0.7;;
67429;SDS011;54298;52.076;5.264;2023-08-08T08:22:32;3.8;;;0.8;;
67429;SDS011;54298;52.076;5.264;2023-08-08T08:24:08;5.6;;;1.11;;
67429;SDS011;54298;52.076;5.264;2023-08-08T08:25:44;4.5;;;1.6;;
67429;SDS011;54298;52.076;5.264;2023-08-08T08:28:57;2.7;;;1.4;;
67429;SDS011;54298;52.076;5.264;2023-08-08T08:30:33;1.8;;;1.0;;
67429;SDS011;54298;52.076;5.264;2023-08-08T08:32:09;1.2;;;0.7;;
67429;SDS011;54298;52.076;5.264;2023-08-08T08:33:45;2.0;;;0.8;;
67429;SDS011;54298;52.076;5.264;2023-08-08T08:36:57;4.3;;;1.2;;
67429;SDS011;54298;52.076;5.264;2023-08-08T08:38:33;2.8;;;1.4;;
67429;SDS011;54298;52.076;5.264;2023-08-08T08:40:10;3.0;;;0.9;;
67429;SDS011;54298;52.076;5.264;2023-08-08T08:43:27;2.5;;;1.4;;
67429;SDS011;54298;52.076;5.264;2023-08-08T08:45:04;3.5;;;0.9;;
67429;SDS011;54298;52.076;5.264;2023-08-08T08:46:42;1.11;;;0.6;;
67429;SDS011;54298;52.076;5.264;2023-08-08T08:48:22;1.3;;;0.6;;
67429;SDS011;54298;52.076;5.264;2023-08-08T08:51:35;2.7;;;0.8;;
67429;SDS011;54298;52.076;5.264;2023-08-08T08:53:12;2.0;;;0.9;;
67429;SDS011;54298;52.076;5.264;2023-08-08T08:54:49;2.31;;;1.11;;
67429;SDS011;54298;52.076;5.264;2023-08-08T08:58:04;4.3;;;1.5;;
67429;SDS011;54298;52.076;5.264;2023-08-08T08:59:42;5.4;;;2.0;;
67429;SDS011;54298;52.076;5.264;2023-08-08T09:01:18;3.2;;;0.9;;
67429;SDS011;54298;52.076;5.264;2023-08-08T09:04:31;6.0;;;2.8;;
67429;SDS011;54298;52.076;5.264;2023-08-08T09:06:09;1.3;;;0.9;;
67429;SDS011;54298;52.076;5.264;2023-08-08T09:07:46;5.9;;;1.8;;
67429;SDS011;54298;52.076;5.264;2023-08-08T09:09:22;1.8;;;0.7;;
67429;SDS011;54298;52.076;5.264;2023-08-08T09:12:35;1.5;;;0.8;;
67429;SDS011;54298;52.076;5.264;2023-08-08T09:14:18;2.31;;;1.11;;
67429;SDS011;54298;52.076;5.264;2023-08-08T09:15:56;4.8;;;2.21;;
67429;SDS011;54298;52.076;5.264;2023-08-08T09:19:08;2.21;;;0.9;;
67429;SDS011;54298;52.076;5.264;2023-08-08T09:20:46;6.4;;;2.4;;
67429;SDS011;54298;52.076;5.264;2023-08-08T09:22:23;4.3;;;2.1;;
67429;SDS011;54298;52.076;5.264;2023-08-08T09:24:00;3.5;;;1.2;;
67429;SDS011;54298;52.076;5.264;2023-08-08T09:27:13;3.0;;;1.4;;
67429;SDS011;54298;52.076;5.264;2023-08-08T09:28:50;2.5;;;0.9;;
67429;SDS011;54298;52.076;5.264;2023-08-08T09:30:26;2.0;;;1.11;;
67429;SDS011;54298;52.076;5.264;2023-08-08T09:33:40;3.6;;;0.9;;
67429;SDS011;54298;52.076;5.264;2023-08-08T09:35:18;2.8;;;0.6;;
67429;SDS011;54298;52.076;5.264;2023-08-08T09:36:54;1.4;;;0.6;;
67429;SDS011;54298;52.076;5.264;2023-08-08T09:38:30;1.8;;;0.8;;
67429;SDS011;54298;52.076;5.264;2023-08-08T09:41:45;1.9;;;0.7;;
67429;SDS011;54298;52.076;5.264;2023-08-08T09:43:22;2.21;;;0.7;;
67429;SDS011;54298;52.076;5.264;2023-08-08T09:44:58;1.4;;;0.5;;
67429;SDS011;54298;52.076;5.264;2023-08-08T09:48:11;1.5;;;0.8;;
67429;SDS011;54298;52.076;5.264;2023-08-08T09:49:47;3.5;;;1.0;;
67429;SDS011;54298;52.076;5.264;2023-08-08T09:51:24;1.9;;;0.9;;
67429;SDS011;54298;52.076;5.264;2023-08-08T09:54:38;3.1;;;1.8;;
67429;SDS011;54298;52.076;5.264;2023-08-08T09:56:16;2.5;;;1.0;;
67429;SDS011;54298;52.076;5.264;2023-08-08T09:57:55;2.31;;;1.0;;
67429;SDS011;54298;52.076;5.264;2023-08-08T09:59:33;2.4;;;1.11;;
67429;SDS011;54298;52.076;5.264;2023-08-08T10:02:46;3.2;;;0.9;;
67429;SDS011;54298;52.076;5.264;2023-08-08T10:04:23;2.31;;;0.9;;
67429;SDS011;54298;52.076;5.264;2023-08-08T10:06:00;1.4;;;0.7;;
67429;SDS011;54298;52.076;5.264;2023-08-08T10:09:14;1.6;;;0.8;;
67429;SDS011;54298;52.076;5.264;2023-08-08T10:10:51;2.7;;;1.0;;
67429;SDS011;54298;52.076;5.264;2023-08-08T10:12:29;2.7;;;0.6;;
67429;SDS011;54298;52.076;5.264;2023-08-08T10:14:06;1.9;;;0.6;;
67429;SDS011;54298;52.076;5.264;2023-08-08T10:17:20;4.0;;;0.7;;
67429;SDS011;54298;52.076;5.264;2023-08-08T10:18:56;5.7;;;0.9;;
67429;SDS011;54298;52.076;5.264;2023-08-08T10:20:35;2.0;;;0.7;;
67429;SDS011;54298;52.076;5.264;2023-08-08T10:23:47;1.5;;;0.7;;
67429;SDS011;54298;52.076;5.264;2023-08-08T10:25:24;6.4;;;2.21;;
67429;SDS011;54298;52.076;5.264;2023-08-08T10:27:03;4.3;;;0.9;;
67429;SDS011;54298;52.076;5.264;2023-08-08T10:30:16;0.9;;;0.5;;
67429;SDS011;54298;52.076;5.264;2023-08-08T10:31:52;1.0;;;0.6;;
67429;SDS011;54298;52.076;5.264;2023-08-08T10:33:39;3.1;;;0.7;;
67429;SDS011;54298;52.076;5.264;2023-08-08T10:35:17;1.4;;;0.8;;
67429;SDS011;54298;52.076;5.264;2023-08-08T10:38:41;2.0;;;0.7;;
67429;SDS011;54298;52.076;5.264;2023-08-08T10:40:18;1.5;;;0.6;;
67429;SDS011;54298;52.076;5.264;2023-08-08T10:41:59;1.0;;;0.6;;
67429;SDS011;54298;52.076;5.264;2023-08-08T10:43:46;1.11;;;0.6;;
67429;SDS011;54298;52.076;5.264;2023-08-08T10:47:06;1.8;;;0.8;;
67429;SDS011;54298;52.076;5.264;2023-08-08T10:48:50;1.4;;;0.5;;
67429;SDS011;54298;52.076;5.264;2023-08-08T10:50:27;1.4;;;0.6;;
67429;SDS011;54298;52.076;5.264;2023-08-08T10:52:06;1.2;;;0.6;;
67429;SDS011;54298;52.076;5.264;2023-08-08T10:55:20;1.9;;;0.6;;
67429;SDS011;54298;52.076;5.264;2023-08-08T10:56:57;1.3;;;0.5;;
67429;SDS011;54298;52.076;5.264;2023-08-08T10:58:36;3.0;;;0.6;;
67429;SDS011;54298;52.076;5.264;2023-08-08T11:00:16;2.1;;;0.5;;
67429;SDS011;54298;52.076;5.264;2023-08-08T11:03:30;0.8;;;0.5;;
67429;SDS011;54298;52.076;5.264;2023-08-08T11:05:06;1.7;;;0.5;;
67429;SDS011;54298;52.076;5.264;2023-08-08T11:06:45;1.2;;;0.6;;
67429;SDS011;54298;52.076;5.264;2023-08-08T11:09:59;1.2;;;0.6;;
67429;SDS011;54298;52.076;5.264;2023-08-08T11:11:37;3.9;;;2.1;;
67429;SDS011;54298;52.076;5.264;2023-08-08T11:13:14;1.8;;;0.9;;
67429;SDS011;54298;52.076;5.264;2023-08-08T11:14:50;2.1;;;0.9;;
67429;SDS011;54298;52.076;5.264;2023-08-08T11:18:02;5.4;;;2.21;;
67429;SDS011;54298;52.076;5.264;2023-08-08T11:19:40;3.1;;;1.5;;
67429;SDS011;54298;52.076;5.264;2023-08-08T11:21:16;9.71;;;4.2;;
67429;SDS011;54298;52.076;5.264;2023-08-08T11:24:34;6.0;;;2.4;;
67429;SDS011;54298;52.076;5.264;2023-08-08T11:26:11;9.21;;;2.5;;
67429;SDS011;54298;52.076;5.264;2023-08-08T11:27:48;5.11;;;2.31;;
67429;SDS011;54298;52.076;5.264;2023-08-08T11:29:26;5.3;;;2.8;;
67429;SDS011;54298;52.076;5.264;2023-08-08T11:32:38;2.31;;;1.2;;
67429;SDS011;54298;52.076;5.264;2023-08-08T11:34:15;1.7;;;1.11;;
67429;SDS011;54298;52.076;5.264;2023-08-08T11:35:51;2.0;;;1.11;;
67429;SDS011;54298;52.076;5.264;2023-08-08T11:39:04;2.31;;;0.7;;
67429;SDS011;54298;52.076;5.264;2023-08-08T11:40:43;3.0;;;1.11;;
67429;SDS011;54298;52.076;5.264;2023-08-08T11:42:20;30.1;;;15.5;;
67429;SDS011;54298;52.076;5.264;2023-08-08T11:45:34;6.8;;;4.0;;
67429;SDS011;54298;52.076;5.264;2023-08-08T11:47:10;2.0;;;1.11;;
67429;SDS011;54298;52.076;5.264;2023-08-08T11:48:46;8.6;;;4.5;;
67429;SDS011;54298;52.076;5.264;2023-08-08T11:50:23;4.41;;;2.7;;
67429;SDS011;54298;52.076;5.264;2023-08-08T11:53:47;4.1;;;1.4;;
67429;SDS011;54298;52.076;5.264;2023-08-08T11:55:27;6.9;;;4.2;;
67429;SDS011;54298;52.076;5.264;2023-08-08T11:57:04;1.7;;;0.8;;
67429;SDS011;54298;52.076;5.264;2023-08-08T11:58:40;4.41;;;2.1;;
67429;SDS011;54298;52.076;5.264;2023-08-08T12:01:52;2.5;;;0.9;;
67429;SDS011;54298;52.076;5.264;2023-08-08T12:03:28;3.1;;;1.0;;
67429;SDS011;54298;52.076;5.264;2023-08-08T12:05:05;5.3;;;1.4;;
67429;SDS011;54298;52.076;5.264;2023-08-08T12:08:18;3.9;;;1.6;;
67429;SDS011;54298;52.076;5.264;2023-08-08T12:09:55;2.0;;;1.11;;
67429;SDS011;54298;52.076;5.264;2023-08-08T12:11:33;2.4;;;1.0;;
67429;SDS011;54298;52.076;5.264;2023-08-08T12:14:46;1.8;;;0.6;;
67429;SDS011;54298;52.076;5.264;2023-08-08T12:16:22;1.9;;;0.8;;
67429;SDS011;54298;52.076;5.264;2023-08-08T12:18:04;1.2;;;0.6;;
67429;SDS011;54298;52.076;5.264;2023-08-08T12:19:45;2.21;;;0.7;;
67429;SDS011;54298;52.076;5.264;2023-08-08T12:22:58;2.8;;;1.0;;
67429;SDS011;54298;52.076;5.264;2023-08-08T12:24:35;3.8;;;1.0;;
67429;SDS011;54298;52.076;5.264;2023-08-08T12:26:11;2.4;;;1.0;;
67429;SDS011;54298;52.076;5.264;2023-08-08T12:29:23;5.6;;;2.1;;
67429;SDS011;54298;52.076;5.264;2023-08-08T12:30:59;6.7;;;3.4;;
67429;SDS011;54298;52.076;5.264;2023-08-08T12:32:35;4.7;;;1.7;;
67429;SDS011;54298;52.076;5.264;2023-08-08T12:35:48;4.5;;;2.31;;
67429;SDS011;54298;52.076;5.264;2023-08-08T12:37:24;3.7;;;1.8;;
67429;SDS011;54298;52.076;5.264;2023-08-08T12:39:00;6.8;;;2.5;;
67429;SDS011;54298;52.076;5.264;2023-08-08T12:40:36;1.6;;;0.8;;
67429;SDS011;54298;52.076;5.264;2023-08-08T12:43:48;4.41;;;2.1;;
67429;SDS011;54298;52.076;5.264;2023-08-08T12:45:24;2.5;;;1.4;;
67429;SDS011;54298;52.076;5.264;2023-08-08T12:47:01;5.0;;;2.4;;
67429;SDS011;54298;52.076;5.264;2023-08-08T12:50:14;4.41;;;2.1;;
67429;SDS011;54298;52.076;5.264;2023-08-08T12:51:50;3.7;;;2.0;;
67429;SDS011;54298;52.076;5.264;2023-08-08T12:53:27;3.1;;;1.11;;
67429;SDS011;54298;52.076;5.264;2023-08-08T12:56:40;4.2;;;1.7;;
67429;SDS011;54298;52.076;5.264;2023-08-08T12:58:16;7.6;;;2.21;;